Aviation Digital Data Service (ADDS)

Output produced by METARs form (0739 UTC 29 May 2017)
found at http://www.aviationweather.gov/adds/metars/
 
KDFW 290520Z 2906/3012 01008KT P6SM OVC200 
     FM291200 03007KT P6SM FEW015 OVC180 
     FM292200 09008KT P6SM SCT090